Coulee, North Dakota
Current Conditions -  °F | °C
As of 10:55 AM on Monday 22 Dec 2014 (Local Time) from K08D Reporting Station
Haze Haze  
Wind Chill: 19°   Ceiling: 200
Heat Index: 27°   Visibility: 1.5mi
Dew Point: 27°   Wind: 7mph
Humidity: 100%   Direction: 40°NE
Pressure: 29.54"   Gusts: NA
Location:  48.4598°N, 101.907°W
Report Text: K08D 221655Z AUTO 04006KT 1 1/2SM BR OVC002 M03/M03 A2954 RMK AO2
Loading
Personal Weather Stations






























Interactive Weather Map New forecast layout! Learn more

10-Day Weather Forecast

Advertisements
Track Severe Weather on mobile